Time;durP1;ratioP1;P1;durP2;ratioP2;P2;SDS_P1;SDS_P2;PMS_P1;PMS_P2;Temp;Humidity;BMP_temperature;BMP_pressure;BME280_temperature;BME280_humidity;BME280_pressure;Samples;Min_cycle;Max_cycle;Signal;HPM_P1;HPM_P2
2022/07/30 00:01:35;;;;;;;3.40;3.20;;;;;;;;;;4998306;28;20081;-85
2022/07/30 00:04:03;;;;;;;4.20;3.97;;;;;;;;;;5000156;28;20056;-83
2022/07/30 00:06:31;;;;;;;3.97;3.75;;;;;;;;;;4998260;28;20073;-84
2022/07/30 00:08:58;;;;;;;3.47;3.28;;;;;;;;;;4997484;28;20451;-85
2022/07/30 00:11:25;;;;;;;4.70;4.15;;;;;;;;;;4997568;28;20081;-84
2022/07/30 00:13:54;;;;;;;4.20;3.92;;;;;;;;;;5014784;28;20062;-84
2022/07/30 00:16:21;;;;;;;3.72;3.53;;;;;;;;;;4997980;28;20081;-85
2022/07/30 00:18:48;;;;;;;3.75;3.47;;;;;;;;;;4998408;28;20070;-85
2022/07/30 00:21:17;;;;;;;4.40;4.10;;;;;;;;;;4998149;28;20046;-86
2022/07/30 00:23:59;;;;;;;3.90;3.70;;;;;;;;;;5000268;28;20053;-86
2022/07/30 00:26:28;;;;;;;3.70;3.50;;;;;;;;;;4998756;28;20041;-86
2022/07/30 00:28:55;;;;;;;4.35;3.95;;;;;;;;;;4998515;28;20491;-86
2022/07/30 00:31:22;;;;;;;3.90;3.65;;;;;;;;;;5015834;28;20508;-86
2022/07/30 00:33:49;;;;;;;3.63;3.42;;;;;;;;;;5016966;28;20431;-85
2022/07/30 00:36:16;;;;;;;3.38;3.28;;;;;;;;;;5015360;28;20054;-86
2022/07/30 00:38:44;;;;;;;3.65;3.45;;;;;;;;;;5015704;28;20053;-86
2022/07/30 00:41:11;;;;;;;3.72;3.53;;;;;;;;;;4994195;28;20466;-85
2022/07/30 00:43:38;;;;;;;3.45;3.25;;;;;;;;;;4995893;28;20500;-85
2022/07/30 00:46:05;;;;;;;3.90;3.70;;;;;;;;;;4995321;28;20074;-82
2022/07/30 00:48:33;;;;;;;4.50;4.20;;;;;;;;;;4994726;28;20407;-84
2022/07/30 00:51:00;;;;;;;4.40;4.10;;;;;;;;;;4993944;28;20089;-85
2022/07/30 00:53:29;;;;;;;3.78;3.58;;;;;;;;;;4995465;28;20057;-85
2022/07/30 00:55:56;;;;;;;4.15;3.80;;;;;;;;;;4994424;28;20058;-86
2022/07/30 00:58:23;;;;;;;4.00;3.80;;;;;;;;;;4995316;28;20050;-85
2022/07/30 01:00:50;;;;;;;4.45;4.05;;;;;;;;;;4995608;28;20479;-86
2022/07/30 01:03:18;;;;;;;4.15;3.90;;;;;;;;;;4993707;28;20418;-86
2022/07/30 01:05:45;;;;;;;4.68;4.28;;;;;;;;;;4994635;28;20094;-85
2022/07/30 01:08:12;;;;;;;4.82;3.92;;;;;;;;;;4994478;28;20069;-87
2022/07/30 01:10:39;;;;;;;3.42;3.33;;;;;;;;;;4994754;28;20452;-86
2022/07/30 01:13:07;;;;;;;4.05;3.67;;;;;;;;;;4994936;28;20092;-86
2022/07/30 01:15:34;;;;;;;3.80;3.50;;;;;;;;;;4993363;28;20046;-85
2022/07/30 01:18:04;;;;;;;3.75;3.45;;;;;;;;;;4993711;28;20598;-86
2022/07/30 01:20:40;;;;;;;3.78;3.53;;;;;;;;;;4993755;28;20050;-85
2022/07/30 01:23:30;;;;;;;3.60;3.40;;;;;;;;;;4993472;28;20078;-87
2022/07/30 01:26:03;;;;;;;3.88;3.67;;;;;;;;;;4993799;28;20050;-85
2022/07/30 01:28:32;;;;;;;4.10;3.83;;;;;;;;;;4993766;28;20080;-86
2022/07/30 01:31:00;;;;;;;3.65;3.35;;;;;;;;;;4993782;28;20086;-87
2022/07/30 01:33:29;;;;;;;4.10;3.72;;;;;;;;;;4995182;28;20112;-86
2022/07/30 01:35:56;;;;;;;3.88;3.53;;;;;;;;;;4993740;28;20057;-85
2022/07/30 01:38:24;;;;;;;4.00;3.60;;;;;;;;;;4994865;28;20074;-86
2022/07/30 01:40:52;;;;;;;3.92;3.72;;;;;;;;;;4993298;28;20158;-85
2022/07/30 01:43:21;;;;;;;3.83;3.63;;;;;;;;;;4993846;28;20082;-85
2022/07/30 01:45:49;;;;;;;3.28;3.17;;;;;;;;;;4993662;28;20075;-86
2022/07/30 01:48:17;;;;;;;3.67;3.38;;;;;;;;;;4994606;28;20050;-85
2022/07/30 01:50:45;;;;;;;3.85;3.53;;;;;;;;;;4995637;28;20078;-85
2022/07/30 01:53:18;;;;;;;3.55;3.25;;;;;;;;;;4994557;28;20389;-86
2022/07/30 01:55:46;;;;;;;3.63;3.42;;;;;;;;;;4994547;28;20051;-86
2022/07/30 01:58:14;;;;;;;3.40;3.20;;;;;;;;;;4996530;28;20042;-86
2022/07/30 02:00:43;;;;;;;3.58;3.42;;;;;;;;;;4998057;28;20074;-86
2022/07/30 02:03:10;;;;;;;4.43;3.42;;;;;;;;;;4998060;28;20046;-87
2022/07/30 02:05:40;;;;;;;3.45;3.20;;;;;;;;;;4998126;28;20108;-86
2022/07/30 02:08:14;;;;;;;3.40;3.10;;;;;;;;;;4998238;28;20046;-86
2022/07/30 02:10:43;;;;;;;3.30;3.20;;;;;;;;;;4998171;28;20133;-86
2022/07/30 02:13:12;;;;;;;3.28;3.03;;;;;;;;;;4997597;28;20088;-86
2022/07/30 02:15:48;;;;;;;3.53;3.30;;;;;;;;;;4997862;28;20054;-85
2022/07/30 02:18:31;;;;;;;3.70;3.50;;;;;;;;;;4999173;28;20062;-85
2022/07/30 02:21:04;;;;;;;4.07;3.55;;;;;;;;;;4998814;28;20050;-85
2022/07/30 02:23:42;;;;;;;3.25;3.08;;;;;;;;;;4998565;28;20048;-86
2022/07/30 02:26:14;;;;;;;4.38;3.78;;;;;;;;;;4996021;28;20136;-84
2022/07/30 02:28:43;;;;;;;4.20;4.00;;;;;;;;;;4996156;28;20050;-85
2022/07/30 02:31:10;;;;;;;4.68;4.28;;;;;;;;;;4997103;28;20056;-85
2022/07/30 02:33:44;;;;;;;4.03;3.60;;;;;;;;;;4995876;28;20053;-84
2022/07/30 02:36:16;;;;;;;4.35;4.05;;;;;;;;;;5001570;28;20074;-86
2022/07/30 02:38:46;;;;;;;4.13;3.92;;;;;;;;;;5004248;28;20042;-87
2022/07/30 02:41:13;;;;;;;4.38;4.07;;;;;;;;;;4999851;28;20499;-86
2022/07/30 02:43:41;;;;;;;4.57;4.28;;;;;;;;;;5000441;28;20050;-85
2022/07/30 02:46:10;;;;;;;4.55;4.22;;;;;;;;;;5000697;28;20054;-87
2022/07/30 02:48:39;;;;;;;3.85;3.65;;;;;;;;;;5002333;28;20049;-86
2022/07/30 02:51:09;;;;;;;3.97;3.67;;;;;;;;;;5002750;28;20078;-86
2022/07/30 02:53:37;;;;;;;5.07;4.03;;;;;;;;;;5005185;28;20081;-87
2022/07/30 02:56:06;;;;;;;4.07;3.88;;;;;;;;;;5002248;28;20078;-86
2022/07/30 02:58:36;;;;;;;3.85;3.65;;;;;;;;;;4996372;28;20077;-85
2022/07/30 03:01:04;;;;;;;4.25;4.00;;;;;;;;;;4996730;28;20082;-86
2022/07/30 03:03:31;;;;;;;3.83;3.55;;;;;;;;;;4995775;28;20118;-86
2022/07/30 03:05:59;;;;;;;3.60;3.47;;;;;;;;;;4996465;28;20074;-85
2022/07/30 03:08:27;;;;;;;5.45;3.40;;;;;;;;;;4997897;28;20093;-86
2022/07/30 03:10:55;;;;;;;3.70;3.40;;;;;;;;;;5016093;23;20081;-82
2022/07/30 03:13:24;;;;;;;3.53;3.40;;;;;;;;;;5016593;28;20053;-84
2022/07/30 03:15:52;;;;;;;3.53;3.13;;;;;;;;;;5014580;28;20050;-84
2022/07/30 03:18:20;;;;;;;3.65;3.35;;;;;;;;;;5014697;28;20046;-83
2022/07/30 03:20:49;;;;;;;3.22;2.95;;;;;;;;;;5014849;28;20069;-83
2022/07/30 03:23:17;;;;;;;3.28;3.08;;;;;;;;;;5014639;28;20121;-83
2022/07/30 03:25:50;;;;;;;3.40;3.20;;;;;;;;;;5014606;28;20053;-83
2022/07/30 03:28:21;;;;;;;3.22;3.03;;;;;;;;;;5014966;28;20050;-85
2022/07/30 03:30:48;;;;;;;4.35;3.20;;;;;;;;;;5014668;28;20193;-83
2022/07/30 03:33:16;;;;;;;3.03;2.85;;;;;;;;;;5014710;28;20077;-83
2022/07/30 03:35:43;;;;;;;4.07;3.28;;;;;;;;;;5014735;28;20065;-83
2022/07/30 03:38:12;;;;;;;3.50;3.17;;;;;;;;;;5015161;28;20404;-84
2022/07/30 03:40:40;;;;;;;3.47;3.13;;;;;;;;;;5017095;28;20429;-84
2022/07/30 03:43:11;;;;;;;3.28;3.00;;;;;;;;;;5016316;28;20050;-83
2022/07/30 03:45:59;;;;;;;3.40;3.20;;;;;;;;;;5015213;28;20491;-83
2022/07/30 03:48:27;;;;;;;3.53;3.33;;;;;;;;;;5014709;28;20487;-83
2022/07/30 03:50:54;;;;;;;4.03;3.65;;;;;;;;;;5014438;28;20053;-83
2022/07/30 03:53:23;;;;;;;3.20;3.00;;;;;;;;;;5015723;28;20054;-84
2022/07/30 03:55:51;;;;;;;3.30;3.00;;;;;;;;;;5015443;28;20057;-83
2022/07/30 03:58:19;;;;;;;3.35;3.15;;;;;;;;;;5015324;28;20058;-83
2022/07/30 04:00:47;;;;;;;5.00;3.13;;;;;;;;;;5014989;28;20049;-83
2022/07/30 04:03:25;;;;;;;3.58;3.28;;;;;;;;;;5014887;28;20050;-83
2022/07/30 04:05:52;;;;;;;3.70;3.50;;;;;;;;;;5014898;28;20050;-83
2022/07/30 04:08:19;;;;;;;3.30;3.10;;;;;;;;;;5014751;28;20198;-84
2022/07/30 04:10:47;;;;;;;3.50;3.30;;;;;;;;;;5014259;28;20056;-83
2022/07/30 04:13:14;;;;;;;3.42;3.22;;;;;;;;;;5015006;28;20091;-83
2022/07/30 04:15:48;;;;;;;3.15;2.95;;;;;;;;;;5014544;28;20053;-83
2022/07/30 04:18:38;;;;;;;3.30;3.10;;;;;;;;;;5014592;28;20208;-83
2022/07/30 04:21:05;;;;;;;3.15;3.05;;;;;;;;;;5013447;28;20149;-84
2022/07/30 04:23:42;;;;;;;3.40;3.10;;;;;;;;;;5013767;28;20106;-84
2022/07/30 04:26:31;;;;;;;4.65;3.20;;;;;;;;;;5015039;28;20045;-86
2022/07/30 04:28:59;;;;;;;3.10;3.00;;;;;;;;;;5016216;28;20046;-83
2022/07/30 04:31:27;;;;;;;4.53;3.22;;;;;;;;;;5015546;28;20113;-84
2022/07/30 04:33:54;;;;;;;4.40;2.90;;;;;;;;;;5014304;28;20145;-85
2022/07/30 04:36:29;;;;;;;3.30;3.10;;;;;;;;;;5014405;28;20045;-85
2022/07/30 04:38:57;;;;;;;3.05;2.88;;;;;;;;;;5013870;28;20092;-85
2022/07/30 04:41:24;;;;;;;2.85;2.75;;;;;;;;;;5014159;28;20046;-85
2022/07/30 04:43:51;;;;;;;4.72;3.00;;;;;;;;;;5014049;28;20081;-84
2022/07/30 04:46:18;;;;;;;3.60;2.90;;;;;;;;;;5014061;28;20053;-84
2022/07/30 04:48:50;;;;;;;5.03;3.20;;;;;;;;;;5014206;28;20494;-84
2022/07/30 04:51:22;;;;;;;3.10;2.90;;;;;;;;;;5014046;28;20053;-84
2022/07/30 04:53:50;;;;;;;5.22;2.92;;;;;;;;;;5014159;28;20056;-84
2022/07/30 04:56:19;;;;;;;2.83;2.72;;;;;;;;;;5015636;28;20058;-84
2022/07/30 04:58:46;;;;;;;3.42;2.70;;;;;;;;;;5013449;28;20514;-85
2022/07/30 05:01:16;;;;;;;2.97;2.80;;;;;;;;;;5013310;28;20530;-84
2022/07/30 05:03:44;;;;;;;2.78;2.58;;;;;;;;;;5014078;28;20080;-84
2022/07/30 05:06:11;;;;;;;2.65;2.50;;;;;;;;;;5013545;28;20049;-84
2022/07/30 05:08:39;;;;;;;3.13;2.75;;;;;;;;;;5014712;28;20076;-85
2022/07/30 05:11:06;;;;;;;3.95;3.13;;;;;;;;;;5012818;28;20089;-84
2022/07/30 05:13:33;;;;;;;2.63;2.50;;;;;;;;;;5013888;28;20402;-84
2022/07/30 05:16:04;;;;;;;2.83;2.63;;;;;;;;;;5014474;28;20053;-85
2022/07/30 05:18:31;;;;;;;2.90;2.70;;;;;;;;;;5015848;28;20054;-85
2022/07/30 05:20:59;;;;;;;4.00;2.75;;;;;;;;;;5014496;28;20077;-85
2022/07/30 05:23:26;;;;;;;3.00;2.85;;;;;;;;;;5014695;28;20041;-85
2022/07/30 05:25:53;;;;;;;2.45;2.35;;;;;;;;;;5015588;28;20422;-85
2022/07/30 05:28:21;;;;;;;3.80;2.70;;;;;;;;;;5015512;28;20406;-85
2022/07/30 05:30:48;;;;;;;2.92;2.60;;;;;;;;;;5014817;28;20058;-84
2022/07/30 05:33:15;;;;;;;2.90;2.80;;;;;;;;;;5014781;28;20112;-84
2022/07/30 05:35:42;;;;;;;2.67;2.55;;;;;;;;;;5016543;28;20093;-85
2022/07/30 05:38:10;;;;;;;3.05;2.90;;;;;;;;;;5015319;28;20529;-84
2022/07/30 05:40:37;;;;;;;2.53;2.42;;;;;;;;;;5015058;28;20046;-85
2022/07/30 05:43:04;;;;;;;2.88;2.70;;;;;;;;;;5015043;28;20046;-85
2022/07/30 05:45:32;;;;;;;3.15;2.95;;;;;;;;;;5014952;28;20050;-84
2022/07/30 05:47:59;;;;;;;2.95;2.85;;;;;;;;;;5014934;28;20069;-84
2022/07/30 05:50:26;;;;;;;3.50;3.35;;;;;;;;;;5015287;28;20046;-84
2022/07/30 05:52:54;;;;;;;3.58;3.38;;;;;;;;;;5014567;28;20057;-85
2022/07/30 05:55:22;;;;;;;3.83;2.90;;;;;;;;;;5015176;28;20050;-84
2022/07/30 05:57:49;;;;;;;5.45;4.38;;;;;;;;;;5015875;28;20053;-84
2022/07/30 06:00:16;;;;;;;3.88;3.60;;;;;;;;;;5014527;28;20050;-84
2022/07/30 06:02:44;;;;;;;3.70;3.40;;;;;;;;;;5013547;28;20133;-84
2022/07/30 06:05:11;;;;;;;3.60;3.17;;;;;;;;;;5014849;28;20065;-84
2022/07/30 06:07:38;;;;;;;4.18;3.08;;;;;;;;;;5016181;28;20553;-85
2022/07/30 06:10:06;;;;;;;3.20;3.00;;;;;;;;;;5014161;28;20050;-85
2022/07/30 06:12:33;;;;;;;2.85;2.65;;;;;;;;;;5015168;28;20054;-85
2022/07/30 06:15:00;;;;;;;3.13;2.92;;;;;;;;;;5015011;28;20553;-85
2022/07/30 06:17:27;;;;;;;3.45;2.80;;;;;;;;;;5014712;28;20495;-85
2022/07/30 06:19:54;;;;;;;2.78;2.63;;;;;;;;;;5015150;28;20184;-84
2022/07/30 06:22:22;;;;;;;2.55;2.45;;;;;;;;;;5014945;28;20053;-83
2022/07/30 06:24:52;;;;;;;2.63;2.42;;;;;;;;;;5012330;28;20045;-84
2022/07/30 06:27:19;;;;;;;2.95;2.72;;;;;;;;;;5012529;28;20045;-84
2022/07/30 06:29:46;;;;;;;2.40;2.30;;;;;;;;;;5012440;28;20065;-84
2022/07/30 06:32:14;;;;;;;4.93;2.92;;;;;;;;;;5014829;28;20050;-85
2022/07/30 06:34:41;;;;;;;3.10;2.80;;;;;;;;;;5019406;28;20407;-85
2022/07/30 06:37:08;;;;;;;9.27;2.88;;;;;;;;;;5018932;28;20070;-85
2022/07/30 06:39:35;;;;;;;2.75;2.60;;;;;;;;;;5017709;28;20415;-84
2022/07/30 06:42:22;;;;;;;2.97;2.67;;;;;;;;;;5017370;28;20366;-85
2022/07/30 06:44:49;;;;;;;2.75;2.55;;;;;;;;;;5018917;28;20097;-86
2022/07/30 06:47:25;;;;;;;3.30;2.67;;;;;;;;;;5023432;28;20427;-85
2022/07/30 06:49:52;;;;;;;2.58;2.42;;;;;;;;;;5025524;28;20050;-85
2022/07/30 06:52:19;;;;;;;3.55;2.80;;;;;;;;;;5020227;28;20050;-84
2022/07/30 06:54:47;;;;;;;3.50;2.78;;;;;;;;;;5016243;28;20050;-84
2022/07/30 06:57:14;;;;;;;2.63;2.42;;;;;;;;;;5016156;28;20046;-84
2022/07/30 06:59:42;;;;;;;2.80;2.35;;;;;;;;;;5016523;28;20100;-85
2022/07/30 07:02:23;;;;;;;3.25;2.95;;;;;;;;;;5017625;28;20045;-84
2022/07/30 07:04:50;;;;;;;2.88;2.67;;;;;;;;;;5015745;28;20057;-84
2022/07/30 07:07:17;;;;;;;2.83;2.58;;;;;;;;;;5015536;28;20128;-85
2022/07/30 07:10:05;;;;;;;2.75;2.55;;;;;;;;;;5015762;28;20610;-84
2022/07/30 07:12:32;;;;;;;2.88;2.58;;;;;;;;;;5015803;28;20053;-85
2022/07/30 07:14:59;;;;;;;3.50;2.70;;;;;;;;;;5015524;28;20054;-85
2022/07/30 07:17:26;;;;;;;3.53;2.50;;;;;;;;;;5016598;28;20304;-85
2022/07/30 07:19:53;;;;;;;3.13;2.50;;;;;;;;;;5016272;28;20517;-85
2022/07/30 07:22:28;;;;;;;3.10;2.80;;;;;;;;;;5017097;28;20069;-84
2022/07/30 07:24:55;;;;;;;3.25;2.78;;;;;;;;;;5016794;28;20077;-85
2022/07/30 07:27:23;;;;;;;2.50;2.30;;;;;;;;;;5015250;28;20074;-85
2022/07/30 07:29:50;;;;;;;3.05;2.80;;;;;;;;;;5015835;28;20081;-85
2022/07/30 07:32:32;;;;;;;3.60;2.60;;;;;;;;;;5017113;28;20042;-86
2022/07/30 07:35:00;;;;;;;4.40;4.00;;;;;;;;;;5020474;28;20052;-86
2022/07/30 07:37:27;;;;;;;4.63;3.10;;;;;;;;;;5020937;28;20049;-85
2022/07/30 07:39:54;;;;;;;3.92;3.15;;;;;;;;;;5021150;28;20076;-85
2022/07/30 07:42:22;;;;;;;6.47;3.17;;;;;;;;;;5018544;28;20049;-86
2022/07/30 07:44:49;;;;;;;4.22;3.40;;;;;;;;;;5019738;28;20046;-86
2022/07/30 07:47:16;;;;;;;2.88;2.67;;;;;;;;;;5018192;28;20084;-85
2022/07/30 07:49:43;;;;;;;3.35;2.72;;;;;;;;;;5017759;28;20081;-85
2022/07/30 07:52:11;;;;;;;2.70;2.10;;;;;;;;;;5017272;28;20069;-85
2022/07/30 07:54:38;;;;;;;2.25;2.08;;;;;;;;;;5016323;28;20484;-86
2022/07/30 07:57:06;;;;;;;2.55;1.98;;;;;;;;;;5014483;28;20415;-85
2022/07/30 07:59:36;;;;;;;2.15;1.90;;;;;;;;;;5014399;28;20466;-86
2022/07/30 08:02:07;;;;;;;2.45;1.65;;;;;;;;;;5014213;28;20050;-85
2022/07/30 08:04:34;;;;;;;1.90;1.80;;;;;;;;;;5014229;28;20495;-86
2022/07/30 08:07:02;;;;;;;2.30;2.10;;;;;;;;;;5014340;28;20454;-85
2022/07/30 08:09:30;;;;;;;3.22;2.15;;;;;;;;;;5014954;28;20073;-83
2022/07/30 08:12:11;;;;;;;2.25;1.73;;;;;;;;;;5014271;28;20096;-85
2022/07/30 08:14:39;;;;;;;4.43;1.70;;;;;;;;;;5014780;28;20073;-85
2022/07/30 08:17:06;;;;;;;1.98;1.65;;;;;;;;;;5014107;28;20085;-85
2022/07/30 08:19:34;;;;;;;1.88;1.77;;;;;;;;;;5014493;28;20054;-86
2022/07/30 08:22:01;;;;;;;2.97;1.85;;;;;;;;;;5013763;28;20107;-88
2022/07/30 08:24:29;;;;;;;2.65;1.70;;;;;;;;;;5013594;28;20412;-88
2022/07/30 08:26:56;;;;;;;2.30;1.50;;;;;;;;;;5013306;28;20046;-87
2022/07/30 08:29:23;;;;;;;5.65;1.95;;;;;;;;;;5015428;28;20108;-87
2022/07/30 08:31:50;;;;;;;2.53;2.00;;;;;;;;;;5013129;28;20519;-86
2022/07/30 08:34:19;;;;;;;3.63;1.90;;;;;;;;;;5013370;28;20046;-87
2022/07/30 08:36:51;;;;;;;2.00;1.85;;;;;;;;;;5013077;28;20061;-87
2022/07/30 08:39:18;;;;;;;4.60;2.38;;;;;;;;;;5013066;28;20050;-86
2022/07/30 08:41:46;;;;;;;2.05;1.95;;;;;;;;;;5013631;28;20081;-85
2022/07/30 08:44:17;;;;;;;2.00;1.90;;;;;;;;;;5013061;28;20085;-86
2022/07/30 08:46:45;;;;;;;1.75;1.67;;;;;;;;;;5012911;28;20077;-87
2022/07/30 08:49:14;;;;;;;3.92;2.20;;;;;;;;;;5014201;28;20081;-86
2022/07/30 08:51:42;;;;;;;2.20;2.10;;;;;;;;;;5012914;28;20042;-87
2022/07/30 08:54:10;;;;;;;2.10;1.90;;;;;;;;;;5013111;28;20092;-88
2022/07/30 08:56:38;;;;;;;4.18;2.20;;;;;;;;;;5013540;28;20049;-86
2022/07/30 08:59:06;;;;;;;2.13;1.73;;;;;;;;;;5013251;28;20045;-86
2022/07/30 09:01:33;;;;;;;3.22;2.20;;;;;;;;;;5014295;28;20046;-85
2022/07/30 09:04:00;;;;;;;2.47;2.13;;;;;;;;;;5013410;28;20049;-88
2022/07/30 09:06:27;;;;;;;2.83;1.77;;;;;;;;;;5013107;28;20049;-86
2022/07/30 09:08:55;;;;;;;3.92;1.90;;;;;;;;;;5014586;28;20374;-87
2022/07/30 09:11:22;;;;;;;1.70;1.60;;;;;;;;;;5012756;28;20491;-84
2022/07/30 09:13:49;;;;;;;2.78;2.03;;;;;;;;;;5013445;28;20049;-86
2022/07/30 09:16:21;;;;;;;2.10;1.90;;;;;;;;;;5012935;28;20046;-86
2022/07/30 09:18:48;;;;;;;3.08;2.08;;;;;;;;;;5013181;28;20085;-86
2022/07/30 09:21:15;;;;;;;2.30;2.00;;;;;;;;;;5013945;28;20565;-85
2022/07/30 09:24:00;;;;;;;2.45;2.25;;;;;;;;;;5013131;28;20069;-87
2022/07/30 09:26:28;;;;;;;3.45;2.10;;;;;;;;;;5013430;28;20046;-87
2022/07/30 09:29:14;;;;;;;3.42;2.22;;;;;;;;;;5012335;28;20050;-87
2022/07/30 09:31:58;;;;;;;2.80;2.00;;;;;;;;;;5013106;28;20423;-87
2022/07/30 09:34:33;;;;;;;1.70;1.60;;;;;;;;;;5014002;28;20054;-86
2022/07/30 09:37:06;;;;;;;3.35;1.70;;;;;;;;;;5013619;28;20092;-87
2022/07/30 09:39:39;;;;;;;4.32;1.98;;;;;;;;;;5013301;28;20462;-85
2022/07/30 09:42:17;;;;;;;6.18;1.80;;;;;;;;;;5014277;28;20046;-84
2022/07/30 09:44:44;;;;;;;2.88;1.90;;;;;;;;;;5013078;28;20487;-84
2022/07/30 09:47:30;;;;;;;3.53;2.08;;;;;;;;;;5014081;28;20050;-87
2022/07/30 09:50:02;;;;;;;3.55;1.70;;;;;;;;;;5013441;28;20046;-85
2022/07/30 09:52:33;;;;;;;1.75;1.65;;;;;;;;;;5012880;28;20085;-86
2022/07/30 09:55:01;;;;;;;1.80;1.70;;;;;;;;;;5014070;28;20128;-86
2022/07/30 09:57:29;;;;;;;2.80;1.90;;;;;;;;;;5014872;28;20050;-84
2022/07/30 10:00:00;;;;;;;4.10;2.00;;;;;;;;;;5013274;28;20097;-85
2022/07/30 10:02:28;;;;;;;3.17;1.50;;;;;;;;;;5012178;28;20050;-85
2022/07/30 10:05:11;;;;;;;3.60;1.50;;;;;;;;;;5013103;28;20088;-86
2022/07/30 10:07:47;;;;;;;3.40;2.00;;;;;;;;;;5013544;28;20069;-84
2022/07/30 10:10:18;;;;;;;1.60;1.48;;;;;;;;;;5013309;28;20086;-86
2022/07/30 10:12:46;;;;;;;3.22;1.27;;;;;;;;;;5012556;28;20388;-85
2022/07/30 10:15:15;;;;;;;2.85;1.52;;;;;;;;;;5012981;28;20050;-85
2022/07/30 10:17:42;;;;;;;1.95;1.60;;;;;;;;;;5012547;28;20060;-85
2022/07/30 10:20:10;;;;;;;2.05;1.33;;;;;;;;;;5015417;28;20487;-86
2022/07/30 10:22:38;;;;;;;1.65;1.55;;;;;;;;;;5017080;28;20050;-86
2022/07/30 10:25:05;;;;;;;1.70;1.60;;;;;;;;;;5018828;28;20046;-85
2022/07/30 10:27:33;;;;;;;1.90;1.65;;;;;;;;;;5017772;28;20112;-85
2022/07/30 10:30:00;;;;;;;1.92;1.75;;;;;;;;;;5016678;28;20053;-86
2022/07/30 10:32:31;;;;;;;2.03;1.85;;;;;;;;;;5017062;28;20052;-84
2022/07/30 10:34:59;;;;;;;3.42;1.98;;;;;;;;;;5019572;28;20133;-84
2022/07/30 10:37:27;;;;;;;3.72;1.80;;;;;;;;;;5021554;28;20146;-86
2022/07/30 10:39:57;;;;;;;2.50;1.85;;;;;;;;;;5019652;28;20069;-85
2022/07/30 10:42:43;;;;;;;2.00;1.50;;;;;;;;;;5017360;28;20100;-87
2022/07/30 10:45:10;;;;;;;1.65;1.45;;;;;;;;;;5015970;28;20053;-85
2022/07/30 10:47:44;;;;;;;2.63;1.77;;;;;;;;;;5016941;28;20574;-85
2022/07/30 10:50:17;;;;;;;3.30;1.42;;;;;;;;;;5016336;28;20108;-85
2022/07/30 10:52:50;;;;;;;2.67;1.53;;;;;;;;;;5015525;28;20042;-85
2022/07/30 10:55:21;;;;;;;1.50;1.33;;;;;;;;;;5015564;28;20057;-84
2022/07/30 10:58:08;;;;;;;4.60;1.65;;;;;;;;;;5027117;28;20049;-84
2022/07/30 11:00:57;;;;;;;1.67;1.40;;;;;;;;;;5025729;28;20076;-87
2022/07/30 11:03:28;;;;;;;2.72;1.80;;;;;;;;;;5022721;28;20050;-82
2022/07/30 11:06:14;;;;;;;2.20;1.60;;;;;;;;;;5025715;28;20056;-82
2022/07/30 11:08:47;;;;;;;1.38;1.38;;;;;;;;;;5027364;28;20057;-82
2022/07/30 11:11:20;;;;;;;3.57;1.80;;;;;;;;;;5022316;28;20058;-82
2022/07/30 11:14:07;;;;;;;1.95;1.77;;;;;;;;;;5020665;28;20136;-84
2022/07/30 11:16:34;;;;;;;1.50;1.30;;;;;;;;;;5027006;28;20050;-82
2022/07/30 11:19:04;;;;;;;2.15;1.45;;;;;;;;;;5030694;28;20120;-85
2022/07/30 11:22:10;;;;;;;3.97;1.92;;;;;;;;;;5025679;28;20056;-83
2022/07/30 11:24:45;;;;;;;2.38;1.60;;;;;;;;;;5029765;28;20053;-85
2022/07/30 11:27:36;;;;;;;1.88;1.77;;;;;;;;;;5028622;28;20100;-83
2022/07/30 11:30:27;;;;;;;3.35;1.75;;;;;;;;;;5023094;28;20085;-82
2022/07/30 11:32:56;;;;;;;1.70;1.60;;;;;;;;;;5017835;28;20487;-83
2022/07/30 11:35:30;;;;;;;1.73;1.60;;;;;;;;;;5026543;28;20411;-82
2022/07/30 11:38:18;;;;;;;1.73;1.55;;;;;;;;;;5028896;28;20046;-87
2022/07/30 11:40:48;;;;;;;2.00;1.90;;;;;;;;;;5028514;28;20511;-84
2022/07/30 11:43:23;;;;;;;1.80;1.70;;;;;;;;;;5026186;28;20054;-86
2022/07/30 11:46:09;;;;;;;3.22;1.90;;;;;;;;;;5024325;28;20046;-84
2022/07/30 11:48:39;;;;;;;1.92;1.80;;;;;;;;;;5025225;28;20046;-85
2022/07/30 11:51:07;;;;;;;3.60;2.42;;;;;;;;;;5026177;28;20057;-83
2022/07/30 11:53:35;;;;;;;2.10;2.00;;;;;;;;;;5022172;28;20076;-84
2022/07/30 11:56:03;;;;;;;2.30;2.10;;;;;;;;;;5025883;28;20046;-82
2022/07/30 11:58:38;;;;;;;9.93;3.13;;;;;;;;;;5021344;28;20050;-82
2022/07/30 12:01:13;;;;;;;5.60;3.17;;;;;;;;;;5015621;28;20491;-85
2022/07/30 12:03:41;;;;;;;9.73;3.33;;;;;;;;;;5015423;28;20716;-86
2022/07/30 12:06:12;;;;;;;11.40;3.22;;;;;;;;;;5013809;28;20056;-86
2022/07/30 12:08:41;;;;;;;6.70;3.65;;;;;;;;;;5014230;28;20050;-86
2022/07/30 12:11:08;;;;;;;3.53;3.00;;;;;;;;;;5013536;28;20459;-86
2022/07/30 12:13:36;;;;;;;4.25;3.38;;;;;;;;;;5013510;28;20069;-87
2022/07/30 12:16:12;;;;;;;4.00;3.70;;;;;;;;;;5014734;28;20156;-87
2022/07/30 12:18:39;;;;;;;4.82;3.55;;;;;;;;;;5013586;28;20092;-87
2022/07/30 12:21:07;;;;;;;3.88;3.33;;;;;;;;;;5013635;28;20049;-86
2022/07/30 12:23:35;;;;;;;5.07;3.67;;;;;;;;;;5014360;28;20046;-87
2022/07/30 12:26:02;;;;;;;3.50;3.20;;;;;;;;;;5014366;28;20054;-86
2022/07/30 12:28:30;;;;;;;4.28;3.55;;;;;;;;;;5013624;28;20487;-85
2022/07/30 12:30:57;;;;;;;3.35;3.00;;;;;;;;;;5013335;28;20108;-85
2022/07/30 12:33:25;;;;;;;2.95;2.75;;;;;;;;;;5013460;28;20077;-85
2022/07/30 12:35:53;;;;;;;3.38;3.17;;;;;;;;;;5013609;28;20053;-85
2022/07/30 12:38:22;;;;;;;8.20;3.72;;;;;;;;;;5013508;28;20080;-85
2022/07/30 12:40:57;;;;;;;5.50;3.50;;;;;;;;;;5013234;28;20057;-85
2022/07/30 12:43:43;;;;;;;3.15;2.85;;;;;;;;;;5012673;28;20096;-84
2022/07/30 12:46:11;;;;;;;2.95;2.40;;;;;;;;;;5013388;28;20046;-84
2022/07/30 12:48:59;;;;;;;3.00;2.33;;;;;;;;;;5013178;28;20132;-84
2022/07/30 12:51:51;;;;;;;3.35;2.20;;;;;;;;;;5013112;28;20562;-85
2022/07/30 12:54:28;;;;;;;3.15;2.05;;;;;;;;;;5013182;28;20056;-83
2022/07/30 12:57:00;;;;;;;2.30;2.20;;;;;;;;;;5013027;28;20400;-84
2022/07/30 12:59:29;;;;;;;2.63;2.30;;;;;;;;;;5013121;28;20454;-83
2022/07/30 13:01:59;;;;;;;2.10;2.00;;;;;;;;;;5012950;28;20050;-83
2022/07/30 13:04:27;;;;;;;2.50;2.30;;;;;;;;;;5015449;28;20046;-83
2022/07/30 13:07:03;;;;;;;2.33;2.13;;;;;;;;;;5014845;28;20049;-84
2022/07/30 13:09:32;;;;;;;2.85;2.28;;;;;;;;;;5013077;28;20054;-83
2022/07/30 13:11:59;;;;;;;2.85;2.47;;;;;;;;;;5012961;28;20407;-84
2022/07/30 13:14:26;;;;;;;2.67;2.47;;;;;;;;;;5013613;28;20080;-86
2022/07/30 13:16:57;;;;;;;3.80;2.92;;;;;;;;;;5013808;28;20053;-84
2022/07/30 13:19:25;;;;;;;3.30;3.00;;;;;;;;;;5013250;28;20070;-83
2022/07/30 13:21:52;;;;;;;10.68;3.47;;;;;;;;;;5014327;28;20101;-88
2022/07/30 13:24:19;;;;;;;4.05;3.60;;;;;;;;;;5013455;28;20085;-86
2022/07/30 13:26:47;;;;;;;3.65;3.25;;;;;;;;;;5012300;28;20522;-87
2022/07/30 13:29:16;;;;;;;4.30;3.92;;;;;;;;;;5012648;28;20129;-87
2022/07/30 13:31:44;;;;;;;5.65;3.55;;;;;;;;;;5012517;28;20045;-86
2022/07/30 13:34:11;;;;;;;5.65;4.20;;;;;;;;;;5012521;28;20507;-87
2022/07/30 13:36:38;;;;;;;4.50;3.40;;;;;;;;;;5012468;28;20103;-87
2022/07/30 13:39:06;;;;;;;3.53;3.33;;;;;;;;;;5012596;28;20092;-86
2022/07/30 13:41:34;;;;;;;3.80;3.60;;;;;;;;;;5012491;28;20057;-85
2022/07/30 13:44:02;;;;;;;3.67;3.40;;;;;;;;;;5012273;28;20100;-85
2022/07/30 13:46:29;;;;;;;4.07;3.75;;;;;;;;;;5014010;28;20068;-85
2022/07/30 13:48:56;;;;;;;3.00;2.80;;;;;;;;;;5013358;28;20105;-85
2022/07/30 13:51:24;;;;;;;3.05;2.85;;;;;;;;;;5014037;28;20046;-84
2022/07/30 13:53:51;;;;;;;3.40;3.20;;;;;;;;;;5015666;28;20054;-84
2022/07/30 13:56:18;;;;;;;4.38;3.20;;;;;;;;;;5019652;28;20108;-84
2022/07/30 13:58:46;;;;;;;3.03;2.83;;;;;;;;;;5018949;28;20566;-84
2022/07/30 14:01:14;;;;;;;4.47;3.13;;;;;;;;;;5019353;28;20077;-83
2022/07/30 14:03:43;;;;;;;3.50;3.20;;;;;;;;;;5020240;28;20058;-83
2022/07/30 14:06:17;;;;;;;2.67;2.55;;;;;;;;;;5019852;28;20526;-83
2022/07/30 14:08:44;;;;;;;2.90;2.70;;;;;;;;;;5020294;28;20049;-83
2022/07/30 14:11:11;;;;;;;2.78;2.58;;;;;;;;;;5018455;28;20120;-84
2022/07/30 14:13:38;;;;;;;2.63;2.42;;;;;;;;;;5018927;28;20088;-83
2022/07/30 14:16:06;;;;;;;2.50;2.40;;;;;;;;;;5019308;28;20054;-83
2022/07/30 14:18:54;;;;;;;2.67;2.47;;;;;;;;;;5020355;28;20517;-83
2022/07/30 14:21:21;;;;;;;2.67;2.50;;;;;;;;;;5019470;28;20057;-83
2022/07/30 14:23:48;;;;;;;2.42;2.33;;;;;;;;;;5020735;28;20492;-84
2022/07/30 14:26:15;;;;;;;3.17;2.88;;;;;;;;;;5019263;28;20119;-82
2022/07/30 14:28:42;;;;;;;2.65;2.45;;;;;;;;;;5020763;28;20084;-83
2022/07/30 14:31:10;;;;;;;4.05;2.60;;;;;;;;;;5018803;28;20092;-83
2022/07/30 14:33:37;;;;;;;3.05;2.78;;;;;;;;;;5018676;28;20112;-82
2022/07/30 14:36:04;;;;;;;2.67;2.55;;;;;;;;;;5018650;28;20092;-81
2022/07/30 14:38:31;;;;;;;2.97;2.45;;;;;;;;;;5018837;28;20046;-81
2022/07/30 14:40:58;;;;;;;2.72;2.53;;;;;;;;;;5018981;28;20061;-80
2022/07/30 14:43:26;;;;;;;2.60;2.38;;;;;;;;;;5018581;28;20447;-81
2022/07/30 14:45:53;;;;;;;2.22;2.13;;;;;;;;;;5019550;28;20050;-81
2022/07/30 14:48:21;;;;;;;4.32;2.60;;;;;;;;;;5019984;28;20046;-81
2022/07/30 14:50:48;;;;;;;2.63;2.35;;;;;;;;;;5018559;28;20088;-81
2022/07/30 14:53:35;;;;;;;2.25;2.13;;;;;;;;;;5019832;28;20064;-83
2022/07/30 14:56:02;;;;;;;2.60;2.35;;;;;;;;;;5019319;28;20672;-81
2022/07/30 14:58:29;;;;;;;2.58;2.20;;;;;;;;;;5019289;28;20073;-83
2022/07/30 15:00:56;;;;;;;2.20;2.10;;;;;;;;;;5020216;28;20104;-83